createdAt,value
2023-05-10T00:00:14.328Z,45.17
2023-05-10T00:02:40.927Z,46.08
2023-05-10T00:05:08.168Z,47.42
2023-05-10T00:07:34.538Z,45.97
2023-05-10T00:10:00.924Z,45.92
2023-05-10T00:12:28.665Z,46.15
2023-05-10T00:14:55.031Z,48.03
2023-05-10T00:17:21.429Z,47.39
2023-05-10T00:19:47.782Z,47.76
2023-05-10T00:22:14.168Z,47.46
2023-05-10T00:24:40.551Z,46.36
2023-05-10T00:27:06.877Z,47.36
2023-05-10T00:29:34.714Z,47.31
2023-05-10T00:32:01.142Z,48.59
2023-05-10T00:34:27.515Z,48.27
2023-05-10T00:36:53.855Z,47.71
2023-05-10T00:39:20.265Z,47.72
2023-05-10T00:41:46.629Z,48.08
2023-05-10T00:44:13.033Z,49.38
2023-05-10T00:46:41.170Z,48.72
2023-05-10T00:49:07.600Z,48.69
2023-05-10T00:51:34.142Z,48.82
2023-05-10T00:54:00.673Z,49.21
2023-05-10T00:56:27.813Z,48.91
2023-05-10T00:58:54.211Z,47.94
2023-05-10T01:01:20.831Z,48.24
2023-05-10T01:03:49.259Z,48.73
2023-05-10T01:06:15.626Z,50.38
2023-05-10T01:08:42.252Z,50.26
2023-05-10T01:11:08.621Z,49.08
2023-05-10T01:13:38.373Z,50.02
2023-05-10T01:16:05.587Z,50.36
2023-05-10T01:18:35.095Z,50.63
2023-05-10T01:21:15.645Z,50.14
2023-05-10T01:24:18.223Z,51.01
2023-05-10T01:27:02.811Z,51.26
2023-05-10T01:30:05.038Z,50.17
2023-05-10T01:32:43.481Z,50.88
2023-05-10T01:35:17.212Z,50.61
2023-05-10T01:37:52.350Z,51.20
2023-05-10T01:40:27.288Z,50.67
2023-05-10T01:43:03.666Z,51.22
2023-05-10T01:45:34.662Z,52.86
2023-05-10T01:48:07.415Z,51.53
2023-05-10T01:50:36.348Z,53.42
2023-05-10T01:53:03.747Z,52.54
2023-05-10T01:55:33.573Z,53.34
2023-05-10T01:58:04.623Z,52.85
2023-05-10T02:00:32.612Z,52.15
2023-05-10T02:03:01.028Z,50.95
2023-05-10T02:05:30.657Z,52.34
2023-05-10T02:07:59.430Z,53.19
2023-05-10T02:10:26.877Z,53.55
2023-05-10T02:12:55.604Z,52.24
2023-05-10T02:15:25.784Z,51.91
2023-05-10T02:17:55.218Z,52.09
2023-05-10T02:20:23.041Z,52.21
2023-05-10T02:22:53.274Z,51.70
2023-05-10T02:25:22.139Z,51.57
2023-05-10T02:27:49.456Z,53.41
2023-05-10T02:30:18.086Z,52.56
2023-05-10T02:32:45.515Z,52.64
2023-05-10T02:35:12.904Z,53.50
2023-05-10T02:37:40.548Z,54.37
2023-05-10T02:40:09.772Z,53.77
2023-05-10T02:42:38.462Z,54.22
2023-05-10T02:45:11.384Z,53.81
2023-05-10T02:47:37.866Z,55.44
2023-05-10T02:50:05.070Z,55.57
2023-05-10T02:52:40.287Z,56.28
2023-05-10T02:55:10.692Z,56.31
2023-05-10T02:57:41.797Z,56.05
2023-05-10T03:00:09.064Z,57.50
2023-05-10T03:02:35.463Z,56.24
2023-05-10T03:05:02.001Z,57.61
2023-05-10T03:07:28.391Z,57.93
2023-05-10T03:09:54.775Z,57.56
2023-05-10T03:12:32.380Z,56.82
2023-05-10T03:15:06.468Z,56.98
2023-05-10T03:17:39.923Z,56.01
2023-05-10T03:20:10.847Z,57.10
2023-05-10T03:22:41.707Z,56.71
2023-05-10T03:25:11.653Z,57.26
2023-05-10T03:27:43.467Z,58.51
2023-05-10T03:30:12.632Z,60.39
2023-05-10T03:32:39.393Z,60.22
2023-05-10T03:35:07.804Z,59.40
2023-05-10T03:37:34.161Z,61.00
2023-05-10T03:40:00.610Z,60.52
2023-05-10T03:42:26.981Z,61.60
2023-05-10T03:44:54.891Z,61.98
2023-05-10T03:47:21.244Z,61.95
2023-05-10T03:49:47.742Z,63.55
2023-05-10T03:52:14.138Z,63.73
2023-05-10T03:54:40.550Z,62.28
2023-05-10T03:57:06.952Z,62.22
2023-05-10T03:59:33.351Z,62.20
2023-05-10T04:02:01.095Z,62.68
2023-05-10T04:04:27.675Z,63.27
2023-05-10T04:06:54.083Z,63.94
2023-05-10T04:09:20.429Z,65.74
2023-05-10T04:11:46.805Z,65.11
2023-05-10T04:14:13.190Z,65.20
2023-05-10T04:16:39.611Z,65.56
2023-05-10T04:19:07.335Z,67.12
2023-05-10T04:21:33.713Z,67.84
2023-05-10T04:24:00.054Z,67.20
2023-05-10T04:26:26.428Z,67.02
2023-05-10T04:28:52.852Z,67.50
2023-05-10T04:31:19.229Z,67.27
2023-05-10T04:33:45.655Z,68.04
2023-05-10T04:36:13.381Z,68.86
2023-05-10T04:38:39.756Z,69.74
2023-05-10T04:41:06.843Z,71.50
2023-05-10T04:43:33.469Z,70.97
2023-05-10T04:45:59.882Z,68.38
2023-05-10T04:48:26.297Z,71.33
2023-05-10T04:50:53.294Z,72.95
2023-05-10T04:53:21.094Z,71.60
2023-05-10T04:55:47.559Z,73.48
2023-05-10T04:58:13.912Z,73.35
2023-05-10T05:00:40.502Z,72.13
2023-05-10T05:03:07.196Z,72.49
2023-05-10T05:05:33.674Z,72.25
2023-05-10T05:08:00.085Z,71.90
2023-05-10T05:10:28.045Z,72.90
2023-05-10T05:12:54.495Z,73.58
2023-05-10T05:15:22.338Z,72.54
2023-05-10T05:18:04.179Z,72.99
2023-05-10T05:20:32.980Z,73.84
2023-05-10T05:22:59.397Z,72.97
2023-05-10T05:25:25.753Z,74.61
2023-05-10T05:27:53.485Z,78.59
2023-05-10T05:30:21.004Z,79.90
2023-05-10T05:32:47.578Z,78.66
2023-05-10T05:35:14.247Z,79.17
2023-05-10T05:37:40.697Z,77.69
2023-05-10T05:40:08.113Z,77.03
2023-05-10T05:42:34.535Z,78.13
2023-05-10T05:45:02.362Z,77.15
2023-05-10T05:47:28.750Z,78.98
2023-05-10T05:49:55.138Z,76.33
2023-05-10T05:52:21.555Z,77.17
2023-05-10T05:54:47.913Z,78.81
2023-05-10T05:57:14.257Z,78.35
2023-05-10T05:59:40.758Z,80.66
2023-05-10T06:02:08.541Z,79.00
2023-05-10T06:04:35.007Z,78.97
2023-05-10T06:07:01.674Z,80.12
2023-05-10T06:09:28.052Z,80.52
2023-05-10T06:11:54.432Z,81.88
2023-05-10T06:14:21.575Z,81.34
2023-05-10T06:16:48.013Z,84.28
2023-05-10T06:19:16.102Z,82.01
2023-05-10T06:21:42.575Z,82.93
2023-05-10T06:24:09.085Z,80.32
2023-05-10T06:26:35.450Z,78.91
2023-05-10T06:29:02.236Z,78.72
2023-05-10T06:31:28.820Z,80.66
2023-05-10T06:33:56.753Z,79.66
2023-05-10T06:36:24.838Z,81.17
2023-05-10T06:38:51.198Z,83.21
2023-05-10T06:41:17.573Z,82.52
2023-05-10T06:43:44.033Z,84.40
2023-05-10T06:46:10.414Z,85.65
2023-05-10T06:48:36.822Z,84.60
2023-05-10T06:51:03.212Z,83.80
2023-05-10T06:53:30.956Z,82.42
2023-05-10T06:55:57.319Z,85.66
2023-05-10T06:58:23.847Z,83.67
2023-05-10T07:00:50.237Z,86.02
2023-05-10T07:03:16.634Z,86.18
2023-05-10T07:05:43.309Z,84.19
2023-05-10T07:08:09.810Z,86.70
2023-05-10T07:10:37.518Z,86.19
2023-05-10T07:13:04.007Z,89.24
2023-05-10T07:15:30.405Z,88.27
2023-05-10T07:17:56.836Z,86.65
2023-05-10T07:20:23.371Z,87.27
2023-05-10T07:22:49.821Z,87.04
2023-05-10T07:25:16.379Z,88.62
2023-05-10T07:27:44.275Z,88.01
2023-05-10T07:30:11.820Z,87.21
2023-05-10T07:32:38.534Z,91.83
2023-05-10T07:35:05.864Z,92.84
2023-05-10T07:37:32.263Z,88.86
2023-05-10T07:39:58.629Z,91.82
2023-05-10T07:42:25.028Z,93.24
2023-05-10T07:44:52.721Z,92.64
2023-05-10T07:47:19.131Z,92.53
2023-05-10T07:49:45.650Z,91.44
2023-05-10T07:52:12.062Z,89.88
2023-05-10T07:54:38.471Z,90.59
2023-05-10T07:57:04.858Z,91.43
2023-05-10T07:59:31.249Z,92.47
2023-05-10T08:01:59.035Z,92.39
2023-05-10T08:04:25.527Z,91.95
2023-05-10T08:06:51.903Z,93.12
2023-05-10T08:09:18.258Z,91.42
2023-05-10T08:11:44.628Z,89.29
2023-05-10T08:14:11.018Z,88.55
2023-05-10T08:16:37.386Z,91.94
2023-05-10T08:19:05.203Z,89.16
2023-05-10T08:21:31.692Z,89.30
2023-05-10T08:23:58.173Z,88.76
2023-05-10T08:26:24.665Z,86.44
2023-05-10T08:28:51.057Z,88.66
2023-05-10T08:31:17.557Z,86.87
2023-05-10T08:34:20.516Z,87.96
2023-05-10T08:36:31.874Z,86.71
2023-05-10T08:38:58.693Z,85.08
2023-05-10T08:41:26.260Z,84.82
2023-05-10T08:43:53.904Z,83.57
2023-05-10T08:46:21.838Z,84.87
2023-05-10T08:48:50.189Z,86.90
2023-05-10T08:51:20.494Z,89.28
2023-05-10T08:53:48.520Z,89.12
2023-05-10T08:56:16.573Z,85.04
2023-05-10T08:58:43.014Z,84.63
2023-05-10T09:01:09.859Z,84.90
2023-05-10T09:03:38.608Z,87.43
2023-05-10T09:06:05.336Z,85.42
2023-05-10T09:08:32.278Z,89.92
2023-05-10T09:11:01.889Z,88.51
2023-05-10T09:13:29.174Z,87.24
2023-05-10T09:15:55.687Z,86.84
2023-05-10T09:18:22.145Z,85.11
2023-05-10T09:20:49.695Z,84.07
2023-05-10T09:23:16.145Z,83.16
2023-05-10T09:25:42.708Z,82.39
2023-05-10T09:28:10.588Z,81.93
2023-05-10T09:30:37.424Z,83.19
2023-05-10T09:33:04.084Z,82.24
2023-05-10T09:35:33.062Z,82.89
2023-05-10T09:38:01.890Z,81.67
2023-05-10T09:40:29.725Z,81.25
2023-05-10T09:42:57.491Z,81.66
2023-05-10T09:45:27.761Z,80.71
2023-05-10T09:47:54.287Z,77.69
2023-05-10T09:50:22.705Z,77.91
2023-05-10T09:52:51.341Z,82.14
2023-05-10T09:55:18.892Z,79.24
2023-05-10T09:57:46.031Z,78.21
2023-05-10T10:00:18.023Z,77.61
2023-05-10T10:02:46.616Z,77.80
2023-05-10T10:05:13.066Z,78.81
2023-05-10T10:07:40.186Z,78.47
2023-05-10T10:10:07.917Z,76.37
2023-05-10T10:12:34.365Z,76.89
2023-05-10T10:15:01.508Z,77.34
2023-05-10T10:17:28.468Z,76.47
2023-05-10T10:19:57.882Z,77.42
2023-05-10T10:22:24.419Z,78.24
2023-05-10T10:24:51.335Z,78.79
2023-05-10T10:27:25.515Z,78.32
2023-05-10T10:30:02.892Z,76.95
2023-05-10T10:32:38.872Z,76.77
2023-05-10T10:35:08.965Z,77.76
2023-05-10T10:37:45.370Z,76.62
2023-05-10T10:40:25.563Z,78.76
2023-05-10T10:42:52.235Z,77.39
2023-05-10T10:45:19.973Z,75.66
2023-05-10T10:47:46.709Z,74.81
2023-05-10T10:50:14.550Z,73.74
2023-05-10T10:52:41.608Z,75.06
2023-05-10T10:55:09.974Z,71.20
2023-05-10T10:57:47.820Z,71.54
2023-05-10T11:00:28.435Z,70.37
2023-05-10T11:02:58.087Z,69.80
2023-05-10T11:05:34.547Z,68.55
2023-05-10T11:08:07.184Z,68.93
2023-05-10T11:10:34.608Z,70.94
2023-05-10T11:13:01.867Z,67.50
2023-05-10T11:15:33.452Z,66.48
2023-05-10T11:18:00.183Z,65.34
2023-05-10T11:20:30.050Z,65.83
2023-05-10T11:22:56.541Z,64.24
2023-05-10T11:25:27.877Z,66.04
2023-05-10T11:27:54.527Z,66.33
2023-05-10T11:30:22.346Z,66.61
2023-05-10T11:32:48.858Z,69.82
2023-05-10T11:35:15.232Z,64.30
2023-05-10T11:37:42.922Z,62.07
2023-05-10T11:40:10.807Z,59.58
2023-05-10T11:42:38.214Z,60.08
2023-05-10T11:45:05.955Z,61.22
2023-05-10T11:47:32.471Z,57.75
2023-05-10T11:49:59.260Z,56.64
2023-05-10T11:52:25.719Z,57.67
2023-05-10T11:54:53.956Z,59.92
2023-05-10T11:57:20.986Z,58.57
2023-05-10T11:59:47.481Z,57.20
2023-05-10T12:02:15.046Z,59.54
2023-05-10T12:04:42.271Z,59.75
2023-05-10T12:07:08.761Z,56.57
2023-05-10T12:09:43.188Z,55.92
2023-05-10T12:12:16.454Z,56.09
2023-05-10T12:14:42.935Z,54.45
2023-05-10T12:17:12.793Z,54.72
2023-05-10T12:19:39.944Z,55.34
2023-05-10T12:22:06.581Z,58.27
2023-05-10T12:24:35.071Z,56.62
2023-05-10T12:27:05.630Z,56.35
2023-05-10T12:29:33.294Z,55.29
2023-05-10T12:32:00.924Z,57.11
2023-05-10T12:34:31.573Z,58.58
2023-05-10T12:36:58.121Z,60.72
2023-05-10T12:39:24.565Z,58.39
2023-05-10T12:41:51.535Z,57.40
2023-05-10T12:44:18.334Z,55.89
2023-05-10T12:46:46.005Z,54.07
2023-05-10T12:49:12.420Z,56.43
2023-05-10T12:51:38.850Z,54.59
2023-05-10T12:54:05.226Z,55.00
2023-05-10T12:56:31.594Z,54.21
2023-05-10T12:58:57.933Z,54.70
2023-05-10T13:01:24.326Z,56.60
2023-05-10T13:03:53.670Z,57.55
2023-05-10T13:06:20.021Z,57.71
2023-05-10T13:08:46.372Z,57.40
2023-05-10T13:11:12.780Z,59.25
2023-05-10T13:13:39.156Z,61.13
2023-05-10T13:16:06.237Z,60.57
2023-05-10T13:18:32.663Z,59.14
2023-05-10T13:21:00.383Z,57.68
2023-05-10T13:23:26.877Z,59.43
2023-05-10T13:25:53.264Z,60.04
2023-05-10T13:28:19.675Z,60.63
2023-05-10T13:30:46.065Z,59.03
2023-05-10T13:33:12.429Z,56.67
2023-05-10T13:35:38.806Z,59.04
2023-05-10T13:38:06.516Z,56.17
2023-05-10T13:40:32.900Z,57.83
2023-05-10T13:42:59.320Z,58.39
2023-05-10T13:45:27.133Z,61.31
2023-05-10T13:47:53.539Z,59.72
2023-05-10T13:50:20.227Z,60.60
2023-05-10T13:52:46.594Z,61.95
2023-05-10T13:55:15.023Z,61.24
2023-05-10T13:57:41.785Z,64.63
2023-05-10T14:00:09.262Z,61.42
2023-05-10T14:02:36.068Z,60.28
2023-05-10T14:05:02.639Z,61.84
2023-05-10T14:07:29.068Z,61.61
2023-05-10T14:09:55.438Z,62.26
2023-05-10T14:12:23.225Z,60.80
2023-05-10T14:14:49.601Z,61.60
2023-05-10T14:17:15.965Z,61.18
2023-05-10T14:19:42.317Z,61.97
2023-05-10T14:22:08.656Z,61.95
2023-05-10T14:24:35.064Z,62.29
2023-05-10T14:27:01.437Z,63.24
2023-05-10T14:29:29.186Z,63.96
2023-05-10T14:31:55.598Z,65.49
2023-05-10T14:34:22.053Z,65.22
2023-05-10T14:36:48.447Z,69.15
2023-05-10T14:39:15.003Z,69.23
2023-05-10T14:41:41.359Z,69.15
2023-05-10T14:44:07.760Z,69.06
2023-05-10T14:46:35.625Z,70.13
2023-05-10T14:49:02.045Z,70.46
2023-05-10T14:51:28.449Z,70.66
2023-05-10T14:53:54.822Z,70.76
2023-05-10T14:56:21.169Z,70.46
2023-05-10T14:58:47.583Z,72.53
2023-05-10T15:01:14.057Z,72.94
2023-05-10T15:03:42.187Z,73.84
2023-05-10T15:06:09.152Z,71.68
2023-05-10T15:08:35.531Z,68.86
2023-05-10T15:11:01.885Z,68.28
2023-05-10T15:13:28.263Z,70.17
2023-05-10T15:15:54.824Z,69.77
2023-05-10T15:18:21.288Z,71.39
2023-05-10T15:20:48.984Z,70.89
2023-05-10T15:23:15.401Z,70.76
2023-05-10T15:25:41.955Z,69.36
2023-05-10T15:28:08.287Z,70.09
2023-05-10T15:30:34.680Z,68.44
2023-05-10T15:33:01.145Z,69.37
2023-05-10T15:35:27.563Z,69.32
2023-05-10T15:37:55.440Z,70.22
2023-05-10T15:40:21.868Z,68.80
2023-05-10T15:42:48.225Z,69.90
2023-05-10T15:45:15.308Z,71.23
2023-05-10T15:47:41.795Z,72.70
2023-05-10T15:50:09.237Z,73.80
2023-05-10T15:52:35.617Z,72.39
2023-05-10T15:55:03.718Z,74.79
2023-05-10T15:57:30.202Z,74.11
2023-05-10T15:59:56.779Z,75.56
2023-05-10T16:02:23.420Z,74.34
2023-05-10T16:04:49.956Z,75.31
2023-05-10T16:07:16.360Z,75.58
2023-05-10T16:09:42.693Z,74.05
2023-05-10T16:12:10.483Z,76.53
2023-05-10T16:14:36.871Z,77.77
2023-05-10T16:17:05.895Z,79.20
2023-05-10T16:19:32.383Z,81.14
2023-05-10T16:21:58.981Z,83.50
2023-05-10T16:24:25.393Z,84.87
2023-05-10T16:26:51.854Z,86.72
2023-05-10T16:29:19.614Z,91.04
2023-05-10T16:31:46.083Z,89.18
2023-05-10T16:34:12.498Z,90.29
2023-05-10T16:36:38.933Z,91.18
2023-05-10T16:39:05.321Z,87.64
2023-05-10T16:41:33.165Z,92.66
2023-05-10T16:43:59.582Z,89.93
2023-05-10T16:46:27.411Z,93.40
2023-05-10T16:48:53.801Z,95.96
2023-05-10T16:51:20.172Z,94.33
2023-05-10T16:53:46.561Z,93.54
2023-05-10T16:56:12.942Z,92.93
2023-05-10T16:58:39.303Z,91.53
2023-05-10T17:01:05.712Z,93.80
2023-05-10T17:03:33.566Z,95.87
2023-05-10T17:06:00.175Z,96.29
2023-05-10T17:08:26.595Z,96.36
2023-05-10T17:10:53.070Z,93.17
2023-05-10T17:13:19.484Z,92.04
2023-05-10T17:15:46.318Z,94.35
2023-05-10T17:18:12.750Z,94.13
2023-05-10T17:20:43.417Z,93.15
2023-05-10T17:23:09.969Z,93.81
2023-05-10T17:25:36.485Z,91.42
2023-05-10T17:28:03.140Z,91.46
2023-05-10T17:30:29.913Z,89.32
2023-05-10T17:32:56.381Z,90.83
2023-05-10T17:35:22.825Z,89.98
2023-05-10T17:37:50.540Z,90.97
2023-05-10T17:40:17.168Z,91.16
2023-05-10T17:42:43.571Z,91.88
2023-05-10T17:45:10.961Z,94.00
2023-05-10T17:47:37.521Z,90.86
2023-05-10T17:50:04.661Z,91.64
2023-05-10T17:52:33.444Z,92.71
2023-05-10T17:55:01.407Z,94.39
2023-05-10T17:57:27.783Z,91.18
2023-05-10T17:59:54.168Z,91.40
2023-05-10T18:02:20.656Z,93.03
2023-05-10T18:04:47.234Z,93.82
2023-05-10T18:07:13.664Z,91.50
2023-05-10T18:09:40.047Z,92.28
2023-05-10T18:12:08.010Z,93.11
2023-05-10T18:14:40.501Z,97.12
2023-05-10T18:17:07.333Z,99.54
2023-05-10T18:19:33.771Z,98.77
2023-05-10T18:22:00.165Z,97.00
2023-05-10T18:24:37.511Z,94.66
2023-05-10T18:27:06.037Z,94.00
2023-05-10T18:29:33.737Z,93.35
2023-05-10T18:32:00.217Z,93.88
2023-05-10T18:34:26.625Z,93.65
2023-05-10T18:36:53.129Z,93.04
2023-05-10T18:39:19.553Z,94.02
2023-05-10T18:41:46.062Z,94.33
2023-05-10T18:44:12.450Z,94.66
2023-05-10T18:46:40.213Z,94.01
2023-05-10T18:49:06.829Z,93.25
2023-05-10T18:51:33.203Z,94.01
2023-05-10T18:53:59.632Z,93.67
2023-05-10T18:56:26.033Z,97.33
2023-05-10T18:58:52.386Z,95.65
2023-05-10T19:01:18.771Z,95.61
2023-05-10T19:03:46.509Z,94.84
2023-05-10T19:06:12.851Z,96.44
2023-05-10T19:08:39.237Z,96.88
2023-05-10T19:11:05.594Z,95.04
2023-05-10T19:13:31.920Z,95.18
2023-05-10T19:16:05.655Z,94.51
2023-05-10T19:18:33.144Z,94.86
2023-05-10T19:21:00.949Z,95.16
2023-05-10T19:23:30.211Z,96.22
2023-05-10T19:25:56.652Z,99.35
2023-05-10T19:28:23.115Z,97.43
2023-05-10T19:30:49.851Z,97.20
2023-05-10T19:33:17.301Z,97.33
2023-05-10T19:35:43.774Z,96.21
2023-05-10T19:38:11.566Z,95.28
2023-05-10T19:40:37.974Z,95.11
2023-05-10T19:43:04.345Z,95.07
2023-05-10T19:45:30.707Z,95.19
2023-05-10T19:47:57.683Z,94.23
2023-05-10T19:50:24.151Z,94.37
2023-05-10T19:52:50.767Z,92.95
2023-05-10T19:55:28.196Z,92.42
2023-05-10T19:57:54.672Z,92.53
2023-05-10T20:00:21.437Z,92.27
2023-05-10T20:02:47.889Z,92.04
2023-05-10T20:05:14.673Z,93.98
2023-05-10T20:07:41.104Z,92.67
2023-05-10T20:10:08.342Z,94.41
2023-05-10T20:12:36.087Z,92.53
2023-05-10T20:15:02.525Z,93.13
2023-05-10T20:17:29.103Z,93.05
2023-05-10T20:19:55.659Z,94.17
2023-05-10T20:22:22.074Z,93.91
2023-05-10T20:24:48.653Z,92.47
2023-05-10T20:27:15.077Z,92.33
2023-05-10T20:29:42.775Z,91.58
2023-05-10T20:32:09.255Z,90.80
2023-05-10T20:34:35.613Z,91.56
2023-05-10T20:37:01.982Z,91.58
2023-05-10T20:39:28.366Z,92.09
2023-05-10T20:41:54.763Z,91.79
2023-05-10T20:44:21.129Z,93.09
2023-05-10T20:46:48.988Z,94.23
2023-05-10T20:49:15.427Z,92.99
2023-05-10T20:51:41.801Z,92.77
2023-05-10T20:54:08.203Z,95.45
2023-05-10T20:56:34.633Z,96.20
2023-05-10T20:59:01.035Z,94.75
2023-05-10T21:01:27.469Z,93.46
2023-05-10T21:03:55.158Z,98.91
2023-05-10T21:06:21.578Z,94.69
2023-05-10T21:08:47.964Z,94.52
2023-05-10T21:11:14.380Z,93.72
2023-05-10T21:13:40.764Z,95.99
2023-05-10T21:16:07.149Z,94.67
2023-05-10T21:18:33.594Z,94.82
2023-05-10T21:21:01.359Z,93.67
2023-05-10T21:23:27.716Z,95.63
2023-05-10T21:25:54.345Z,97.49
2023-05-10T21:28:20.736Z,95.63
2023-05-10T21:30:47.127Z,95.02
2023-05-10T21:33:13.601Z,95.66
2023-05-10T21:35:39.976Z,96.70
2023-05-10T21:38:07.784Z,94.58
2023-05-10T21:40:34.187Z,94.13
2023-05-10T21:43:00.657Z,95.86
2023-05-10T21:45:27.145Z,96.04
2023-05-10T21:47:53.553Z,96.21
2023-05-10T21:50:20.221Z,95.34
2023-05-10T21:52:46.742Z,95.06
2023-05-10T21:55:15.483Z,94.58
2023-05-10T21:57:41.957Z,94.32
2023-05-10T22:00:09.890Z,93.93
2023-05-10T22:02:36.846Z,93.64
2023-05-10T22:05:03.835Z,94.09
2023-05-10T22:07:30.402Z,95.84
2023-05-10T22:09:56.894Z,95.84
2023-05-10T22:12:25.032Z,93.53
2023-05-10T22:15:06.394Z,93.07
2023-05-10T22:17:37.534Z,93.22
2023-05-10T22:20:05.364Z,91.19
2023-05-10T22:22:31.950Z,94.24
2023-05-10T22:24:58.329Z,93.89
2023-05-10T22:27:26.136Z,94.30
2023-05-10T22:29:52.596Z,94.00
2023-05-10T22:32:19.021Z,94.29
2023-05-10T22:34:45.403Z,94.41
2023-05-10T22:37:11.902Z,93.37
2023-05-10T22:39:38.269Z,94.64
2023-05-10T22:42:04.762Z,93.14
2023-05-10T22:44:32.568Z,93.44
2023-05-10T22:46:59.001Z,97.49
2023-05-10T22:49:25.529Z,96.26
2023-05-10T22:51:51.869Z,96.70
2023-05-10T22:54:18.318Z,94.29
2023-05-10T22:56:44.681Z,93.16
2023-05-10T22:59:11.146Z,96.15
2023-05-10T23:01:38.958Z,100.00
2023-05-10T23:04:05.362Z,100.00
2023-05-10T23:06:31.740Z,100.00
2023-05-10T23:08:58.130Z,97.58
2023-05-10T23:11:24.909Z,96.40
2023-05-10T23:13:51.266Z,96.12
2023-05-10T23:16:17.939Z,94.81
2023-05-10T23:18:45.752Z,94.67
2023-05-10T23:21:12.523Z,94.78
2023-05-10T23:23:38.959Z,94.99
2023-05-10T23:26:05.350Z,94.80
2023-05-10T23:28:31.720Z,94.40
2023-05-10T23:30:58.748Z,94.25
2023-05-10T23:33:25.596Z,96.51
2023-05-10T23:35:53.422Z,95.87
2023-05-10T23:38:19.857Z,95.78
2023-05-10T23:40:48.282Z,96.98
2023-05-10T23:43:14.657Z,96.07
2023-05-10T23:45:41.051Z,95.08
2023-05-10T23:48:07.597Z,93.38
2023-05-10T23:50:34.113Z,93.16
2023-05-10T23:53:01.818Z,96.07
2023-05-10T23:55:28.218Z,95.28
2023-05-10T23:57:54.551Z,94.44
